sensor_id;sensor_type;location;lat;lon;timestamp;P1;durP1;ratioP1;P2;durP2;ratioP2
41139;SDS011;26881;48.784;9.192;2023-04-06T00:00:42;20.73;;;10.33;;
41139;SDS011;26881;48.784;9.192;2023-04-06T00:06:04;13.70;;;9.50;;
41139;SDS011;26881;48.784;9.192;2023-04-06T00:11:26;16.77;;;9.23;;
41139;SDS011;26881;48.784;9.192;2023-04-06T00:16:48;11.53;;;8.07;;
41139;SDS011;26881;48.784;9.192;2023-04-06T00:22:10;15.07;;;8.50;;
41139;SDS011;26881;48.784;9.192;2023-04-06T00:27:32;14.47;;;9.10;;
41139;SDS011;26881;48.784;9.192;2023-04-06T00:32:54;13.47;;;8.20;;
41139;SDS011;26881;48.784;9.192;2023-04-06T00:38:15;11.90;;;7.70;;
41139;SDS011;26881;48.784;9.192;2023-04-06T00:43:37;11.27;;;7.30;;
41139;SDS011;26881;48.784;9.192;2023-04-06T00:48:59;9.20;;;6.90;;
41139;SDS011;26881;48.784;9.192;2023-04-06T00:54:21;10.23;;;7.53;;
41139;SDS011;26881;48.784;9.192;2023-04-06T00:59:43;13.07;;;7.57;;
41139;SDS011;26881;48.784;9.192;2023-04-06T01:05:05;9.30;;;6.73;;
41139;SDS011;26881;48.784;9.192;2023-04-06T01:10:28;10.40;;;7.13;;
41139;SDS011;26881;48.784;9.192;2023-04-06T01:15:50;11.83;;;8.13;;
41139;SDS011;26881;48.784;9.192;2023-04-06T01:21:12;15.23;;;7.80;;
41139;SDS011;26881;48.784;9.192;2023-04-06T01:26:37;11.60;;;8.27;;
41139;SDS011;26881;48.784;9.192;2023-04-06T01:32:00;12.20;;;8.60;;
41139;SDS011;26881;48.784;9.192;2023-04-06T01:37:22;12.17;;;9.07;;
41139;SDS011;26881;48.784;9.192;2023-04-06T01:42:43;11.40;;;7.77;;
41139;SDS011;26881;48.784;9.192;2023-04-06T01:48:05;12.47;;;8.63;;
41139;SDS011;26881;48.784;9.192;2023-04-06T01:53:28;14.83;;;8.93;;
41139;SDS011;26881;48.784;9.192;2023-04-06T01:58:50;15.20;;;8.73;;
41139;SDS011;26881;48.784;9.192;2023-04-06T02:04:12;13.67;;;8.63;;
41139;SDS011;26881;48.784;9.192;2023-04-06T02:09:35;15.07;;;8.60;;
41139;SDS011;26881;48.784;9.192;2023-04-06T02:14:58;13.27;;;8.50;;
41139;SDS011;26881;48.784;9.192;2023-04-06T02:20:19;14.40;;;9.13;;
41139;SDS011;26881;48.784;9.192;2023-04-06T02:25:42;16.97;;;8.73;;
41139;SDS011;26881;48.784;9.192;2023-04-06T02:31:03;15.03;;;8.97;;
41139;SDS011;26881;48.784;9.192;2023-04-06T02:36:25;12.00;;;9.40;;
41139;SDS011;26881;48.784;9.192;2023-04-06T02:41:47;12.30;;;9.13;;
41139;SDS011;26881;48.784;9.192;2023-04-06T02:47:09;16.87;;;10.23;;
41139;SDS011;26881;48.784;9.192;2023-04-06T02:52:31;12.20;;;9.10;;
41139;SDS011;26881;48.784;9.192;2023-04-06T02:57:53;14.17;;;8.73;;
41139;SDS011;26881;48.784;9.192;2023-04-06T03:03:15;14.50;;;8.57;;
41139;SDS011;26881;48.784;9.192;2023-04-06T03:08:37;13.27;;;8.63;;
41139;SDS011;26881;48.784;9.192;2023-04-06T03:13:58;15.03;;;8.90;;
41139;SDS011;26881;48.784;9.192;2023-04-06T03:19:20;13.20;;;9.47;;
41139;SDS011;26881;48.784;9.192;2023-04-06T03:24:42;13.60;;;8.40;;
41139;SDS011;26881;48.784;9.192;2023-04-06T03:30:04;13.03;;;9.20;;
41139;SDS011;26881;48.784;9.192;2023-04-06T03:35:27;12.23;;;8.97;;
41139;SDS011;26881;48.784;9.192;2023-04-06T03:40:49;13.60;;;9.73;;
41139;SDS011;26881;48.784;9.192;2023-04-06T03:46:10;21.20;;;9.60;;
41139;SDS011;26881;48.784;9.192;2023-04-06T03:51:32;12.73;;;8.93;;
41139;SDS011;26881;48.784;9.192;2023-04-06T03:56:54;13.67;;;9.03;;
41139;SDS011;26881;48.784;9.192;2023-04-06T04:02:16;12.80;;;9.53;;
41139;SDS011;26881;48.784;9.192;2023-04-06T04:07:38;12.60;;;8.63;;
41139;SDS011;26881;48.784;9.192;2023-04-06T04:13:00;9.50;;;7.60;;
41139;SDS011;26881;48.784;9.192;2023-04-06T04:18:21;10.20;;;8.30;;
41139;SDS011;26881;48.784;9.192;2023-04-06T04:23:43;11.57;;;8.73;;
41139;SDS011;26881;48.784;9.192;2023-04-06T04:29:05;18.07;;;10.67;;
41139;SDS011;26881;48.784;9.192;2023-04-06T04:34:28;16.10;;;9.13;;
41139;SDS011;26881;48.784;9.192;2023-04-06T04:39:49;12.70;;;9.13;;
41139;SDS011;26881;48.784;9.192;2023-04-06T04:45:11;12.83;;;8.37;;
41139;SDS011;26881;48.784;9.192;2023-04-06T04:50:33;12.10;;;9.40;;
41139;SDS011;26881;48.784;9.192;2023-04-06T04:55:55;14.07;;;9.40;;
41139;SDS011;26881;48.784;9.192;2023-04-06T05:01:17;13.00;;;9.00;;
41139;SDS011;26881;48.784;9.192;2023-04-06T05:06:39;14.93;;;9.57;;
41139;SDS011;26881;48.784;9.192;2023-04-06T05:12:01;16.33;;;9.40;;
41139;SDS011;26881;48.784;9.192;2023-04-06T05:17:23;17.03;;;10.53;;
41139;SDS011;26881;48.784;9.192;2023-04-06T05:22:45;20.57;;;10.63;;
41139;SDS011;26881;48.784;9.192;2023-04-06T05:28:06;16.57;;;10.53;;
41139;SDS011;26881;48.784;9.192;2023-04-06T05:33:28;17.20;;;10.37;;
41139;SDS011;26881;48.784;9.192;2023-04-06T05:38:50;18.80;;;10.63;;
41139;SDS011;26881;48.784;9.192;2023-04-06T05:44:14;15.77;;;11.63;;
41139;SDS011;26881;48.784;9.192;2023-04-06T05:49:35;17.97;;;10.70;;
41139;SDS011;26881;48.784;9.192;2023-04-06T05:54:57;20.30;;;12.60;;
41139;SDS011;26881;48.784;9.192;2023-04-06T06:00:19;21.33;;;12.23;;
41139;SDS011;26881;48.784;9.192;2023-04-06T06:05:41;18.10;;;11.70;;
41139;SDS011;26881;48.784;9.192;2023-04-06T06:11:03;21.60;;;12.70;;
41139;SDS011;26881;48.784;9.192;2023-04-06T06:16:24;20.50;;;12.60;;
41139;SDS011;26881;48.784;9.192;2023-04-06T06:21:46;20.93;;;13.00;;
41139;SDS011;26881;48.784;9.192;2023-04-06T06:27:08;25.63;;;14.50;;
41139;SDS011;26881;48.784;9.192;2023-04-06T06:32:30;17.93;;;11.93;;
41139;SDS011;26881;48.784;9.192;2023-04-06T06:37:52;18.33;;;12.20;;
41139;SDS011;26881;48.784;9.192;2023-04-06T06:43:13;18.97;;;11.40;;
41139;SDS011;26881;48.784;9.192;2023-04-06T06:48:36;16.20;;;11.83;;
41139;SDS011;26881;48.784;9.192;2023-04-06T06:53:58;16.77;;;11.40;;
41139;SDS011;26881;48.784;9.192;2023-04-06T06:59:19;18.63;;;11.10;;
41139;SDS011;26881;48.784;9.192;2023-04-06T07:04:42;18.60;;;11.87;;
41139;SDS011;26881;48.784;9.192;2023-04-06T07:10:03;14.80;;;11.73;;
41139;SDS011;26881;48.784;9.192;2023-04-06T07:15:26;16.13;;;11.63;;
41139;SDS011;26881;48.784;9.192;2023-04-06T07:20:47;19.00;;;11.53;;
41139;SDS011;26881;48.784;9.192;2023-04-06T07:26:09;15.10;;;11.40;;
41139;SDS011;26881;48.784;9.192;2023-04-06T07:31:31;18.77;;;11.77;;
41139;SDS011;26881;48.784;9.192;2023-04-06T07:36:53;19.00;;;11.40;;
41139;SDS011;26881;48.784;9.192;2023-04-06T07:42:15;16.87;;;11.63;;
41139;SDS011;26881;48.784;9.192;2023-04-06T07:47:37;16.43;;;11.70;;
41139;SDS011;26881;48.784;9.192;2023-04-06T07:52:59;18.20;;;11.53;;
41139;SDS011;26881;48.784;9.192;2023-04-06T07:58:21;18.33;;;11.17;;
41139;SDS011;26881;48.784;9.192;2023-04-06T08:03:43;17.20;;;11.73;;
41139;SDS011;26881;48.784;9.192;2023-04-06T08:09:05;19.90;;;12.00;;
41139;SDS011;26881;48.784;9.192;2023-04-06T08:14:27;17.10;;;11.97;;
41139;SDS011;26881;48.784;9.192;2023-04-06T08:19:49;18.17;;;11.37;;
41139;SDS011;26881;48.784;9.192;2023-04-06T08:25:11;18.13;;;11.73;;
41139;SDS011;26881;48.784;9.192;2023-04-06T08:30:32;19.87;;;12.40;;
41139;SDS011;26881;48.784;9.192;2023-04-06T08:35:54;17.55;;;11.35;;
41139;SDS011;26881;48.784;9.192;2023-04-06T08:41:16;14.82;;;11.75;;
41139;SDS011;26881;48.784;9.192;2023-04-06T08:46:39;22.80;;;12.27;;
41139;SDS011;26881;48.784;9.192;2023-04-06T08:52:00;17.67;;;11.83;;
41139;SDS011;26881;48.784;9.192;2023-04-06T08:57:22;19.43;;;11.97;;
41139;SDS011;26881;48.784;9.192;2023-04-06T09:02:46;17.73;;;11.55;;
41139;SDS011;26881;48.784;9.192;2023-04-06T09:08:10;20.98;;;10.63;;
41139;SDS011;26881;48.784;9.192;2023-04-06T09:13:43;12.75;;;8.90;;
41139;SDS011;26881;48.784;9.192;2023-04-06T09:19:11;19.88;;;10.15;;
41139;SDS011;26881;48.784;9.192;2023-04-06T09:24:41;17.02;;;10.20;;
41139;SDS011;26881;48.784;9.192;2023-04-06T09:30:08;14.32;;;9.60;;
41139;SDS011;26881;48.784;9.192;2023-04-06T09:35:35;12.45;;;9.38;;
41139;SDS011;26881;48.784;9.192;2023-04-06T09:40:57;13.85;;;9.57;;
41139;SDS011;26881;48.784;9.192;2023-04-06T09:46:22;14.30;;;9.10;;
41139;SDS011;26881;48.784;9.192;2023-04-06T09:51:45;12.60;;;7.75;;
41139;SDS011;26881;48.784;9.192;2023-04-06T10:02:50;13.10;;;8.43;;
41139;SDS011;26881;48.784;9.192;2023-04-06T10:08:18;10.93;;;8.02;;
41139;SDS011;26881;48.784;9.192;2023-04-06T10:13:42;10.10;;;7.68;;
41139;SDS011;26881;48.784;9.192;2023-04-06T10:19:15;11.35;;;7.85;;
41139;SDS011;26881;48.784;9.192;2023-04-06T10:24:42;14.20;;;8.23;;
41139;SDS011;26881;48.784;9.192;2023-04-06T10:30:05;11.10;;;8.02;;
41139;SDS011;26881;48.784;9.192;2023-04-06T10:35:37;10.68;;;7.32;;
41139;SDS011;26881;48.784;9.192;2023-04-06T10:41:05;9.82;;;7.72;;
41139;SDS011;26881;48.784;9.192;2023-04-06T10:46:31;10.15;;;8.05;;
41139;SDS011;26881;48.784;9.192;2023-04-06T10:51:54;11.88;;;7.25;;
41139;SDS011;26881;48.784;9.192;2023-04-06T10:57:17;10.70;;;6.55;;
41139;SDS011;26881;48.784;9.192;2023-04-06T11:02:49;10.27;;;6.90;;
41139;SDS011;26881;48.784;9.192;2023-04-06T11:08:30;11.88;;;7.20;;
41139;SDS011;26881;48.784;9.192;2023-04-06T11:13:54;7.85;;;6.25;;
41139;SDS011;26881;48.784;9.192;2023-04-06T11:19:17;10.93;;;6.60;;
41139;SDS011;26881;48.784;9.192;2023-04-06T11:24:39;10.18;;;6.50;;
41139;SDS011;26881;48.784;9.192;2023-04-06T11:30:01;8.15;;;6.35;;
41139;SDS011;26881;48.784;9.192;2023-04-06T11:35:24;8.93;;;6.28;;
41139;SDS011;26881;48.784;9.192;2023-04-06T11:40:46;10.05;;;6.00;;
41139;SDS011;26881;48.784;9.192;2023-04-06T11:46:08;7.35;;;6.57;;
41139;SDS011;26881;48.784;9.192;2023-04-06T11:51:35;8.05;;;6.15;;
41139;SDS011;26881;48.784;9.192;2023-04-06T11:56:57;9.23;;;5.88;;
41139;SDS011;26881;48.784;9.192;2023-04-06T12:02:19;7.70;;;6.00;;
41139;SDS011;26881;48.784;9.192;2023-04-06T12:07:41;9.52;;;6.35;;
41139;SDS011;26881;48.784;9.192;2023-04-06T12:13:04;9.00;;;6.35;;
41139;SDS011;26881;48.784;9.192;2023-04-06T12:18:26;7.25;;;5.40;;
41139;SDS011;26881;48.784;9.192;2023-04-06T12:23:48;6.78;;;5.43;;
41139;SDS011;26881;48.784;9.192;2023-04-06T12:29:09;8.82;;;6.50;;
41139;SDS011;26881;48.784;9.192;2023-04-06T12:34:32;9.18;;;6.05;;
41139;SDS011;26881;48.784;9.192;2023-04-06T12:39:54;8.95;;;5.78;;
41139;SDS011;26881;48.784;9.192;2023-04-06T12:45:16;7.80;;;5.65;;
41139;SDS011;26881;48.784;9.192;2023-04-06T12:50:38;10.27;;;6.15;;
41139;SDS011;26881;48.784;9.192;2023-04-06T12:56:00;7.00;;;5.60;;
41139;SDS011;26881;48.784;9.192;2023-04-06T13:01:22;8.50;;;5.90;;
41139;SDS011;26881;48.784;9.192;2023-04-06T13:06:44;11.02;;;5.88;;
41139;SDS011;26881;48.784;9.192;2023-04-06T13:12:06;8.35;;;5.18;;
41139;SDS011;26881;48.784;9.192;2023-04-06T13:17:28;6.85;;;5.40;;
41139;SDS011;26881;48.784;9.192;2023-04-06T13:22:49;6.88;;;5.30;;
41139;SDS011;26881;48.784;9.192;2023-04-06T13:28:11;7.57;;;5.68;;
41139;SDS011;26881;48.784;9.192;2023-04-06T13:33:33;9.55;;;5.70;;
41139;SDS011;26881;48.784;9.192;2023-04-06T13:38:55;8.40;;;5.88;;
41139;SDS011;26881;48.784;9.192;2023-04-06T13:44:17;6.57;;;5.28;;
41139;SDS011;26881;48.784;9.192;2023-04-06T13:49:39;8.25;;;5.38;;
41139;SDS011;26881;48.784;9.192;2023-04-06T13:55:01;9.82;;;5.63;;
41139;SDS011;26881;48.784;9.192;2023-04-06T14:00:23;8.63;;;6.18;;
41139;SDS011;26881;48.784;9.192;2023-04-06T14:05:45;6.65;;;5.53;;
41139;SDS011;26881;48.784;9.192;2023-04-06T14:11:10;8.35;;;5.50;;
41139;SDS011;26881;48.784;9.192;2023-04-06T14:16:33;8.65;;;6.57;;
41139;SDS011;26881;48.784;9.192;2023-04-06T14:21:55;10.70;;;6.28;;
41139;SDS011;26881;48.784;9.192;2023-04-06T14:27:17;7.63;;;5.85;;
41139;SDS011;26881;48.784;9.192;2023-04-06T14:32:39;8.35;;;5.85;;
41139;SDS011;26881;48.784;9.192;2023-04-06T14:38:02;8.32;;;5.63;;
41139;SDS011;26881;48.784;9.192;2023-04-06T14:43:24;6.15;;;5.05;;
41139;SDS011;26881;48.784;9.192;2023-04-06T14:48:47;8.07;;;6.20;;
41139;SDS011;26881;48.784;9.192;2023-04-06T14:54:08;10.82;;;8.02;;
41139;SDS011;26881;48.784;9.192;2023-04-06T14:59:30;8.02;;;6.03;;
41139;SDS011;26881;48.784;9.192;2023-04-06T15:04:58;9.32;;;5.80;;
41139;SDS011;26881;48.784;9.192;2023-04-06T15:10:20;9.40;;;6.20;;
41139;SDS011;26881;48.784;9.192;2023-04-06T15:15:42;8.45;;;6.38;;
41139;SDS011;26881;48.784;9.192;2023-04-06T15:21:04;8.30;;;6.13;;
41139;SDS011;26881;48.784;9.192;2023-04-06T15:26:26;6.95;;;5.95;;
41139;SDS011;26881;48.784;9.192;2023-04-06T15:31:48;8.65;;;6.15;;
41139;SDS011;26881;48.784;9.192;2023-04-06T15:37:09;8.05;;;5.82;;
41139;SDS011;26881;48.784;9.192;2023-04-06T15:42:31;9.68;;;6.18;;
41139;SDS011;26881;48.784;9.192;2023-04-06T15:47:53;9.93;;;6.25;;
41139;SDS011;26881;48.784;9.192;2023-04-06T15:53:15;7.55;;;5.60;;
41139;SDS011;26881;48.784;9.192;2023-04-06T15:58:36;7.28;;;5.45;;
41139;SDS011;26881;48.784;9.192;2023-04-06T16:03:58;7.30;;;6.13;;
41139;SDS011;26881;48.784;9.192;2023-04-06T16:09:20;8.32;;;5.95;;
41139;SDS011;26881;48.784;9.192;2023-04-06T16:14:42;9.45;;;6.15;;
41139;SDS011;26881;48.784;9.192;2023-04-06T16:20:04;10.52;;;5.50;;
41139;SDS011;26881;48.784;9.192;2023-04-06T16:25:26;12.48;;;6.10;;
41139;SDS011;26881;48.784;9.192;2023-04-06T16:30:47;10.75;;;6.72;;
41139;SDS011;26881;48.784;9.192;2023-04-06T16:36:09;9.15;;;6.60;;
41139;SDS011;26881;48.784;9.192;2023-04-06T16:41:32;11.68;;;6.80;;
41139;SDS011;26881;48.784;9.192;2023-04-06T16:46:54;12.77;;;7.18;;
41139;SDS011;26881;48.784;9.192;2023-04-06T16:52:16;12.60;;;7.18;;
41139;SDS011;26881;48.784;9.192;2023-04-06T16:57:38;8.60;;;6.90;;
41139;SDS011;26881;48.784;9.192;2023-04-06T17:03:03;13.48;;;8.05;;
41139;SDS011;26881;48.784;9.192;2023-04-06T17:08:25;10.80;;;7.70;;
41139;SDS011;26881;48.784;9.192;2023-04-06T17:13:47;10.27;;;7.15;;
41139;SDS011;26881;48.784;9.192;2023-04-06T17:19:09;10.30;;;7.50;;
41139;SDS011;26881;48.784;9.192;2023-04-06T17:24:31;10.05;;;6.43;;
41139;SDS011;26881;48.784;9.192;2023-04-06T17:29:53;9.73;;;6.35;;
41139;SDS011;26881;48.784;9.192;2023-04-06T17:35:16;8.15;;;5.45;;
41139;SDS011;26881;48.784;9.192;2023-04-06T17:40:37;9.00;;;5.13;;
41139;SDS011;26881;48.784;9.192;2023-04-06T17:45:59;10.68;;;6.05;;
41139;SDS011;26881;48.784;9.192;2023-04-06T17:51:21;6.88;;;5.22;;
41139;SDS011;26881;48.784;9.192;2023-04-06T17:56:43;7.65;;;5.13;;
41139;SDS011;26881;48.784;9.192;2023-04-06T18:02:05;10.40;;;5.65;;
41139;SDS011;26881;48.784;9.192;2023-04-06T18:07:27;7.60;;;5.70;;
41139;SDS011;26881;48.784;9.192;2023-04-06T18:12:49;7.22;;;5.25;;
41139;SDS011;26881;48.784;9.192;2023-04-06T18:18:11;7.63;;;5.50;;
41139;SDS011;26881;48.784;9.192;2023-04-06T18:23:33;8.60;;;5.80;;
41139;SDS011;26881;48.784;9.192;2023-04-06T18:28:55;9.27;;;5.55;;
41139;SDS011;26881;48.784;9.192;2023-04-06T18:34:16;6.57;;;5.22;;
41139;SDS011;26881;48.784;9.192;2023-04-06T18:39:41;8.43;;;4.28;;
41139;SDS011;26881;48.784;9.192;2023-04-06T18:45:03;7.28;;;4.82;;
41139;SDS011;26881;48.784;9.192;2023-04-06T18:50:25;8.80;;;5.00;;
41139;SDS011;26881;48.784;9.192;2023-04-06T18:55:48;8.38;;;4.80;;
41139;SDS011;26881;48.784;9.192;2023-04-06T19:01:20;6.00;;;4.22;;
41139;SDS011;26881;48.784;9.192;2023-04-06T19:06:43;6.82;;;5.18;;
41139;SDS011;26881;48.784;9.192;2023-04-06T19:12:05;8.93;;;4.93;;
41139;SDS011;26881;48.784;9.192;2023-04-06T19:17:27;7.28;;;5.45;;
41139;SDS011;26881;48.784;9.192;2023-04-06T19:22:49;12.68;;;6.72;;
41139;SDS011;26881;48.784;9.192;2023-04-06T19:28:11;9.13;;;6.75;;
41139;SDS011;26881;48.784;9.192;2023-04-06T19:33:35;5.13;;;3.72;;
41139;SDS011;26881;48.784;9.192;2023-04-06T19:38:57;6.28;;;3.40;;
41139;SDS011;26881;48.784;9.192;2023-04-06T19:44:20;8.18;;;4.63;;
41139;SDS011;26881;48.784;9.192;2023-04-06T19:49:41;7.40;;;5.13;;
41139;SDS011;26881;48.784;9.192;2023-04-06T19:55:04;6.25;;;4.25;;
41139;SDS011;26881;48.784;9.192;2023-04-06T20:00:26;4.85;;;2.83;;
41139;SDS011;26881;48.784;9.192;2023-04-06T20:05:48;4.53;;;3.10;;
41139;SDS011;26881;48.784;9.192;2023-04-06T20:11:10;2.55;;;2.30;;
41139;SDS011;26881;48.784;9.192;2023-04-06T20:16:32;4.65;;;2.15;;
41139;SDS011;26881;48.784;9.192;2023-04-06T20:21:54;2.75;;;2.17;;
41139;SDS011;26881;48.784;9.192;2023-04-06T20:27:16;3.22;;;2.63;;
41139;SDS011;26881;48.784;9.192;2023-04-06T20:32:38;7.80;;;2.97;;
41139;SDS011;26881;48.784;9.192;2023-04-06T20:38:00;8.25;;;2.80;;
41139;SDS011;26881;48.784;9.192;2023-04-06T20:43:22;6.13;;;2.83;;
41139;SDS011;26881;48.784;9.192;2023-04-06T20:48:46;5.68;;;3.10;;
41139;SDS011;26881;48.784;9.192;2023-04-06T20:54:07;4.38;;;3.97;;
41139;SDS011;26881;48.784;9.192;2023-04-06T20:59:29;5.55;;;4.07;;
41139;SDS011;26881;48.784;9.192;2023-04-06T21:04:51;5.78;;;3.88;;
41139;SDS011;26881;48.784;9.192;2023-04-06T21:10:13;8.52;;;4.30;;
41139;SDS011;26881;48.784;9.192;2023-04-06T21:15:35;4.97;;;3.67;;
41139;SDS011;26881;48.784;9.192;2023-04-06T21:20:57;6.75;;;3.80;;
41139;SDS011;26881;48.784;9.192;2023-04-06T21:26:18;4.90;;;4.07;;
41139;SDS011;26881;48.784;9.192;2023-04-06T21:31:41;6.38;;;4.70;;
41139;SDS011;26881;48.784;9.192;2023-04-06T21:37:03;6.07;;;4.60;;
41139;SDS011;26881;48.784;9.192;2023-04-06T21:42:25;6.22;;;4.80;;
41139;SDS011;26881;48.784;9.192;2023-04-06T21:47:46;7.70;;;5.45;;
41139;SDS011;26881;48.784;9.192;2023-04-06T21:53:08;8.40;;;6.28;;
41139;SDS011;26881;48.784;9.192;2023-04-06T21:58:30;6.80;;;5.97;;
41139;SDS011;26881;48.784;9.192;2023-04-06T22:03:52;9.65;;;6.80;;
41139;SDS011;26881;48.784;9.192;2023-04-06T22:09:14;9.75;;;7.07;;
41139;SDS011;26881;48.784;9.192;2023-04-06T22:14:36;8.65;;;6.90;;
41139;SDS011;26881;48.784;9.192;2023-04-06T22:19:58;8.50;;;7.17;;
41139;SDS011;26881;48.784;9.192;2023-04-06T22:25:19;7.60;;;6.65;;
41139;SDS011;26881;48.784;9.192;2023-04-06T22:30:41;8.95;;;7.63;;
41139;SDS011;26881;48.784;9.192;2023-04-06T22:36:03;10.63;;;7.22;;
41139;SDS011;26881;48.784;9.192;2023-04-06T22:41:25;9.67;;;7.90;;
41139;SDS011;26881;48.784;9.192;2023-04-06T22:46:47;8.85;;;7.93;;
41139;SDS011;26881;48.784;9.192;2023-04-06T22:52:09;11.45;;;8.45;;
41139;SDS011;26881;48.784;9.192;2023-04-06T22:57:31;11.52;;;8.95;;
41139;SDS011;26881;48.784;9.192;2023-04-06T23:02:53;9.50;;;7.60;;
41139;SDS011;26881;48.784;9.192;2023-04-06T23:08:15;10.95;;;7.72;;
41139;SDS011;26881;48.784;9.192;2023-04-06T23:13:37;11.23;;;7.72;;
41139;SDS011;26881;48.784;9.192;2023-04-06T23:18:59;9.77;;;7.78;;
41139;SDS011;26881;48.784;9.192;2023-04-06T23:24:21;10.88;;;7.22;;
41139;SDS011;26881;48.784;9.192;2023-04-06T23:29:43;8.35;;;7.40;;
41139;SDS011;26881;48.784;9.192;2023-04-06T23:35:04;10.67;;;8.20;;
41139;SDS011;26881;48.784;9.192;2023-04-06T23:40:27;11.02;;;7.72;;
41139;SDS011;26881;48.784;9.192;2023-04-06T23:45:48;8.60;;;7.70;;
41139;SDS011;26881;48.784;9.192;2023-04-06T23:51:10;8.60;;;7.55;;
41139;SDS011;26881;48.784;9.192;2023-04-06T23:56:32;10.23;;;8.30;;
